Nearby METAR Reports


 

CYOO - Oshawa, Municipal Airport, Ontario, Canada
Distance from station: NW 3.2km
Updated: 26/05/2022 15:00
Overcast
Overcast
 Wind from S
Wind: S 22 km/h, Gust: 33 km/h
Temperature: 22°C
Dew Point: 15°C
Humidity: 65%
Barometer: 1012.5 hPa
Clouds: Overcast
Visibility: 14 km
Cloud details: Mostly cloudy 1676 m
Overcast 3962 m
2022/05/26 19:00 CYOO 261900Z AUTO 19012G18KT 9SM BKN055 OVC130 22/15 A2990 RMK SLP128 DENSITY ALT 1400FT
CYKZ - Toronto, Buttonville, Municipal Airport, Ontario, Canada
Distance from station: W 39.75km
Updated: 03/01/2019 04:00
NOT Current
Partly cloudy
Partly cloudy
 Wind from WSW
Wind: WSW 7 km/h
Temperature: -3°C
Wind Chill: -6°C
Dew Point: -5°C
Humidity: 86%
Barometer: 1010.8 hPa
Clouds: Partly cloudy
Visibility: 24 km
Cloud details: Partly cloudy 1219 m
2019/01/03 09:00 CYKZ 030900Z 25004KT 15SM SCT040 M03/M05 A2985 RMK SC3 LAST STFD OBS FAREWELL SLP118
 
CXTO - Toronto City, Buttonville, Ontario, Canada
Distance from station: WSW 49km
Updated: 26/05/2022 15:00

 
Temperature: 25°C
Dew Point: 16°C
Humidity: 57%
2022/05/26 19:00 CXTO 261900Z AUTO 25/16 RMK AO1 SLP125 T02470160 56016
CYTZ - Toronto City, Island Airport, Ontario, Canada
Distance from station: SW 51.7km
Updated: 26/05/2022 15:00
Partly cloudy
Partly cloudy
 Wind from SSW
Wind: SSW 24 km/h, Gust: 33 km/h
Barometer: 1011.9 hPa
Clouds: Partly cloudy
Visibility: 14 km
Cloud details: Partly cloudy 1524 m
2022/05/26 19:00 CYTZ 261900Z AUTO 20013G18KT 9SM SCT050 A2988 RMK T MISG DP MISG DENSITY ALT MISG
 
CYPQ - Toronto, Peterborough Airport, Ontario, Canada
Distance from station: NE 54km
Updated: 21/05/2022 16:00
NOT Current

 Wind from varies
Wind: varies 0 km/h
Temperature: 23°C
Dew Point: 17°C
Humidity: 69%
Barometer: 1012.5 hPa
2022/05/21 20:00 CYPQ 212000Z AUTO /////KT 23/17 A2990 RMK WIND MISG CLD MISG WX MISG VIS MISG PCPN MISG ICE MISG SLP125 DENSITY ALT 1700FT
CWNC - Cobourg, (mars), Ontario, Canada
Distance from station: E 57km
Updated: 26/05/2022 15:00

 Wind from E
Wind: E 9 km/h
Temperature: 15°C
Dew Point: 12°C
Humidity: 82%
2022/05/26 19:00 CWNC 261900Z AUTO 10005KT 15/12 RMK AO1 SLP134 T01460117 58017
 
CYYZ - Toronto, Lester Pearson Airport, Ontario, Canada
Distance from station: W 65.5km
Updated: 26/05/2022 15:00
Mostly cloudy
Mostly cloudy
 Wind from SW
Wind: SW 20 km/h, Gust: 39 km/h
Temperature: 26°C
Dew Point: 17°C
Humidity: 58%
Barometer: 1012.2 hPa
Clouds: Mostly cloudy
Visibility: 24 km
Cloud details: Mostly cloudy 1280 m
Mostly cloudy 7315 m
2022/05/26 19:00 CYYZ 261900Z 23011G21KT 15SM BKN042 BKN240 26/17 A2989 RMK CU5CI2 SLP121 DENSITY ALT 2000FT
CWGL - Lagoon City, Ontario, Canada
Distance from station: NNW 74km
Updated: 26/05/2022 15:00

 Wind from S
Wind: S 20 km/h
Temperature: 19°C
Dew Point: 15°C
Humidity: 78%
2022/05/26 19:00 CWGL 261900Z AUTO 19011KT 19/15 RMK AO1 SLP099 T01880154 58016
 
CWWZ - Port Weller Airport, Ontario, Canada
Distance from station: SSW 77km
Updated: 26/05/2022 15:00

 Wind from S
Wind: S 24 km/h, Gust: 37 km/h
Temperature: 27°C
Heat Index: 28°C
Dew Point: 17°C
Humidity: 54%
2022/05/26 19:00 CWWZ 261900Z AUTO 19013G20KT 27/17 RMK AO1 PK WND 18020/1857 SLP130 T02710169 58016
CYSN - St.Catharines Niagara Airport, Ontario, Canada
Distance from station: SSW 81km
Updated: 26/05/2022 15:00
Mostly cloudy
Mostly cloudy
 Wind from SSW
Wind: SSW 33 km/h, Gust: 44 km/h
Temperature: 27°C
Heat Index: 28°C
Dew Point: 18°C
Humidity: 58%
Barometer: 1012.2 hPa
Clouds: Mostly cloudy
Visibility: 24 km
Cloud details: Mostly cloudy 1402 m
Mostly cloudy 6096 m
2022/05/26 19:00 CYSN 261900Z 21018G24KT 15SM BKN046 BKN200 27/18 A2989 RMK SC5CI2 SLP124 DENSITY ALT 1800FT
This data is offered only as a general guide to local weather conditions. It should not be relied upon in lieu of officially disseminated weather information for determining possible risk to persons or property. This site, including all information contained therein, is made available as is without warranties of any kind, either express or implied. The Vicarage Weather Feed© includes links to other sites for user convenience only. The content of any linked third-party site is not controlled by The Vicarage Weather Feed©. Access to any third-party website through The Vicarage Weather Feed©, regardless of whether or not the third-party site is a linked site, is entirely at the users own risk. Externally sourced content or material is excluded from The Vicarage Weather Feed© copyright and is the copyright and property of the respective provider. Skywarn® and the Skywarn® logo are registered trademarks of the National Oceanic and Atmospheric Administration, used with permission.